createdAt,value
2023-01-17T00:00:18.750Z,95934.00
2023-01-17T00:01:52.463Z,95939.00
2023-01-17T00:03:25.927Z,95936.00
2023-01-17T00:05:16.735Z,95930.00
2023-01-17T00:07:07.790Z,95933.00
2023-01-17T00:08:58.608Z,95936.00
2023-01-17T00:10:32.281Z,95942.00
2023-01-17T00:12:08.031Z,95934.00
2023-01-17T00:13:41.273Z,95942.00
2023-01-17T00:15:16.646Z,95953.00
2023-01-17T00:16:50.078Z,95944.00
2023-01-17T00:18:24.582Z,95939.00
2023-01-17T00:20:19.247Z,95944.00
2023-01-17T00:22:13.010Z,95952.00
2023-01-17T00:24:04.056Z,95950.00
2023-01-17T00:25:59.826Z,95952.00
2023-01-17T00:27:32.023Z,95957.00
2023-01-17T00:29:04.112Z,95955.00
2023-01-17T00:30:36.456Z,95961.00
2023-01-17T00:32:08.531Z,95972.00
2023-01-17T00:33:42.264Z,95961.00
2023-01-17T00:35:15.332Z,95970.00
2023-01-17T00:36:47.452Z,95965.00
2023-01-17T00:38:22.025Z,95955.00
2023-01-17T00:39:54.251Z,95967.00
2023-01-17T00:41:29.156Z,95976.00
2023-01-17T00:43:20.003Z,95965.00
2023-01-17T00:45:10.911Z,95965.00
2023-01-17T00:47:01.798Z,95984.00
2023-01-17T00:48:53.471Z,95984.00
2023-01-17T00:50:45.833Z,95985.00
2023-01-17T00:52:36.906Z,95986.00
2023-01-17T00:54:28.149Z,95991.00
2023-01-17T00:56:20.014Z,95997.00
2023-01-17T00:58:10.983Z,95997.00
2023-01-17T01:00:02.633Z,95995.00
2023-01-17T01:01:54.082Z,96001.00
2023-01-17T01:03:44.828Z,96011.00
2023-01-17T01:05:36.139Z,95994.00
2023-01-17T01:07:28.198Z,96000.00
2023-01-17T01:09:18.990Z,96016.00
2023-01-17T01:11:10.181Z,96008.00
2023-01-17T01:13:01.155Z,96014.00
2023-01-17T01:14:52.186Z,96019.00
2023-01-17T01:16:43.293Z,96019.00
2023-01-17T01:18:34.202Z,96026.00
2023-01-17T01:20:25.686Z,96024.00
2023-01-17T01:22:16.774Z,96020.00
2023-01-17T01:24:08.946Z,96030.00
2023-01-17T01:25:59.791Z,96038.00
2023-01-17T01:27:50.804Z,96044.00
2023-01-17T01:29:41.636Z,96039.00
2023-01-17T01:31:32.591Z,96044.00
2023-01-17T01:33:21.494Z,96056.00
2023-01-17T01:34:54.712Z,96059.00
2023-01-17T01:36:27.996Z,96054.00
2023-01-17T01:38:03.303Z,96065.00
2023-01-17T01:39:38.136Z,96051.00
2023-01-17T01:41:11.318Z,96065.00
2023-01-17T01:42:51.632Z,96066.00
2023-01-17T01:44:45.753Z,96065.00
2023-01-17T01:46:25.441Z,96069.00
2023-01-17T01:48:03.706Z,96078.00
2023-01-17T01:49:37.471Z,96082.00
2023-01-17T01:51:16.820Z,96075.00
2023-01-17T01:52:58.505Z,96089.00
2023-01-17T01:54:35.802Z,96078.00
2023-01-17T01:56:15.836Z,96087.00
2023-01-17T01:57:53.639Z,96084.00
2023-01-17T01:59:27.440Z,96083.00
2023-01-17T02:01:01.009Z,96091.00
2023-01-17T02:02:35.308Z,96100.00
2023-01-17T02:04:10.832Z,96099.00
2023-01-17T02:05:44.993Z,96118.00
2023-01-17T02:07:24.828Z,96107.00
2023-01-17T02:09:04.338Z,96108.00
2023-01-17T02:10:40.178Z,96115.00
2023-01-17T02:12:15.551Z,96110.00
2023-01-17T02:13:48.804Z,96111.00
2023-01-17T02:15:28.997Z,96123.00
2023-01-17T02:17:24.355Z,96121.00
2023-01-17T02:19:22.350Z,96128.00
2023-01-17T02:21:24.677Z,96136.00
2023-01-17T02:24:30.850Z,96150.00
2023-01-17T02:26:48.708Z,96135.00
2023-01-17T02:28:46.926Z,96157.00
2023-01-17T02:30:34.667Z,96156.00
2023-01-17T02:32:16.339Z,96165.00
2023-01-17T02:33:58.833Z,96157.00
2023-01-17T02:35:41.774Z,96161.00
2023-01-17T02:37:23.313Z,96169.00
2023-01-17T02:39:08.446Z,96168.00
2023-01-17T02:40:48.618Z,96185.00
2023-01-17T02:42:27.944Z,96184.00
2023-01-17T02:44:04.833Z,96188.00
2023-01-17T02:45:38.325Z,96197.00
2023-01-17T02:47:25.067Z,96196.00
2023-01-17T02:49:00.251Z,96202.00
2023-01-17T02:50:53.087Z,96187.00
2023-01-17T02:52:54.532Z,96204.00
2023-01-17T02:55:05.454Z,96193.00
2023-01-17T02:57:14.671Z,96194.00
2023-01-17T02:59:07.588Z,96198.00
2023-01-17T03:00:54.276Z,96205.00
2023-01-17T03:02:39.278Z,96207.00
2023-01-17T03:04:18.350Z,96202.00
2023-01-17T03:05:59.951Z,96203.00
2023-01-17T03:07:34.050Z,96202.00
2023-01-17T03:09:08.766Z,96214.00
2023-01-17T03:10:42.892Z,96204.00
2023-01-17T03:12:17.409Z,96217.00
2023-01-17T03:13:57.642Z,96216.00
2023-01-17T03:15:30.778Z,96215.00
2023-01-17T03:17:04.317Z,96221.00
2023-01-17T03:18:37.633Z,96216.00
2023-01-17T03:20:12.352Z,96214.00
2023-01-17T03:21:45.758Z,96220.00
2023-01-17T03:23:19.057Z,96220.00
2023-01-17T03:24:53.001Z,96220.00
2023-01-17T03:26:26.384Z,96229.00
2023-01-17T03:28:00.982Z,96221.00
2023-01-17T03:29:34.141Z,96234.00
2023-01-17T03:31:07.640Z,96236.00
2023-01-17T03:32:40.245Z,96238.00
2023-01-17T03:34:13.616Z,96249.00
2023-01-17T03:35:47.531Z,96240.00
2023-01-17T03:37:20.947Z,96250.00
2023-01-17T03:38:54.140Z,96247.00
2023-01-17T03:40:27.866Z,96256.00
2023-01-17T03:42:01.007Z,96259.00
2023-01-17T03:43:35.666Z,96273.00
2023-01-17T03:45:10.426Z,96277.00
2023-01-17T03:46:44.625Z,96276.00
2023-01-17T03:48:18.554Z,96276.00
2023-01-17T03:49:52.657Z,96277.00
2023-01-17T03:51:26.145Z,96279.00
2023-01-17T03:52:59.243Z,96281.00
2023-01-17T03:54:31.672Z,96277.00
2023-01-17T03:56:05.160Z,96286.00
2023-01-17T03:57:38.607Z,96290.00
2023-01-17T03:59:13.404Z,96285.00
2023-01-17T04:00:46.847Z,96292.00
2023-01-17T04:02:20.855Z,96295.00
2023-01-17T04:03:54.341Z,96291.00
2023-01-17T04:05:27.523Z,96292.00
2023-01-17T04:06:59.777Z,96311.00
2023-01-17T04:08:33.006Z,96290.00
2023-01-17T04:10:08.255Z,96297.00
2023-01-17T04:11:41.713Z,96293.00
2023-01-17T04:13:16.622Z,96298.00
2023-01-17T04:14:50.163Z,96296.00
2023-01-17T04:16:29.480Z,96299.00
2023-01-17T04:18:04.660Z,96299.00
2023-01-17T04:19:38.481Z,96299.00
2023-01-17T04:21:11.976Z,96294.00
2023-01-17T04:22:45.493Z,96294.00
2023-01-17T04:24:18.831Z,96292.00
2023-01-17T04:25:52.167Z,96296.00
2023-01-17T04:27:25.480Z,96301.00
2023-01-17T04:28:58.834Z,96304.00
2023-01-17T04:30:33.977Z,96298.00
2023-01-17T04:32:07.178Z,96305.00
2023-01-17T04:33:40.318Z,96305.00
2023-01-17T04:35:13.639Z,96311.00
2023-01-17T04:36:46.973Z,96311.00
2023-01-17T04:38:20.284Z,96321.00
2023-01-17T04:39:53.402Z,96313.00
2023-01-17T04:41:29.379Z,96324.00
2023-01-17T04:43:02.759Z,96328.00
2023-01-17T04:44:36.026Z,96331.00
2023-01-17T04:46:10.782Z,96325.00
2023-01-17T04:47:44.892Z,96325.00
2023-01-17T04:49:18.143Z,96332.00
2023-01-17T04:50:52.107Z,96324.00
2023-01-17T04:52:25.321Z,96332.00
2023-01-17T04:53:58.414Z,96347.00
2023-01-17T04:55:31.697Z,96339.00
2023-01-17T04:57:05.089Z,96337.00
2023-01-17T04:58:38.335Z,96341.00
2023-01-17T05:00:13.126Z,96340.00
2023-01-17T05:01:49.665Z,96338.00
2023-01-17T05:03:25.023Z,96343.00
2023-01-17T05:04:58.269Z,96341.00
2023-01-17T05:06:31.677Z,96345.00
2023-01-17T05:08:05.005Z,96346.00
2023-01-17T05:09:38.204Z,96348.00
2023-01-17T05:11:11.525Z,96353.00
2023-01-17T05:12:44.895Z,96350.00
2023-01-17T05:14:18.102Z,96341.00
2023-01-17T05:15:51.505Z,96349.00
2023-01-17T05:17:26.059Z,96351.00
2023-01-17T05:18:59.411Z,96348.00
2023-01-17T05:20:32.843Z,96356.00
2023-01-17T05:22:15.221Z,96359.00
2023-01-17T05:23:48.643Z,96363.00
2023-01-17T05:25:21.518Z,96359.00
2023-01-17T05:26:54.929Z,96355.00
2023-01-17T05:28:28.088Z,96353.00
2023-01-17T05:30:01.229Z,96373.00
2023-01-17T05:31:34.536Z,96365.00
2023-01-17T05:33:10.135Z,96354.00
2023-01-17T05:34:43.358Z,96365.00
2023-01-17T05:36:16.726Z,96371.00
2023-01-17T05:37:50.551Z,96377.00
2023-01-17T05:39:23.884Z,96368.00
2023-01-17T05:40:59.627Z,96370.00
2023-01-17T05:42:31.863Z,96365.00
2023-01-17T05:44:05.584Z,96376.00
2023-01-17T05:45:39.383Z,96385.00
2023-01-17T05:47:12.551Z,96378.00
2023-01-17T05:48:47.161Z,96373.00
2023-01-17T05:50:27.372Z,96372.00
2023-01-17T05:52:00.521Z,96381.00
2023-01-17T05:53:33.743Z,96388.00
2023-01-17T05:55:08.559Z,96386.00
2023-01-17T05:56:41.810Z,96389.00
2023-01-17T05:58:18.145Z,96394.00
2023-01-17T05:59:51.284Z,96393.00
2023-01-17T06:01:24.689Z,96404.00
2023-01-17T06:03:00.842Z,96389.00
2023-01-17T06:04:36.976Z,96392.00
2023-01-17T06:06:10.294Z,96391.00
2023-01-17T06:07:45.554Z,96390.00
2023-01-17T06:09:18.785Z,96402.00
2023-01-17T06:10:52.303Z,96401.00
2023-01-17T06:12:25.695Z,96410.00
2023-01-17T06:13:58.920Z,96409.00
2023-01-17T06:15:32.385Z,96415.00
2023-01-17T06:17:05.725Z,96413.00
2023-01-17T06:18:39.766Z,96416.00
2023-01-17T06:20:14.540Z,96419.00
2023-01-17T06:21:47.836Z,96417.00
2023-01-17T06:23:21.771Z,96416.00
2023-01-17T06:24:55.034Z,96421.00
2023-01-17T06:26:28.216Z,96414.00
2023-01-17T06:28:03.663Z,96421.00
2023-01-17T06:29:36.929Z,96423.00
2023-01-17T06:31:10.902Z,96434.00
2023-01-17T06:32:44.317Z,96437.00
2023-01-17T06:34:17.703Z,96436.00
2023-01-17T06:35:54.239Z,96432.00
2023-01-17T06:37:27.646Z,96442.00
2023-01-17T06:39:00.887Z,96438.00
2023-01-17T06:40:34.584Z,96431.00
2023-01-17T06:42:07.947Z,96433.00
2023-01-17T06:43:41.309Z,96451.00
2023-01-17T06:45:14.798Z,96447.00
2023-01-17T06:46:48.533Z,96443.00
2023-01-17T06:48:22.022Z,96454.00
2023-01-17T06:50:03.368Z,96450.00
2023-01-17T06:51:38.076Z,96454.00
2023-01-17T06:53:11.505Z,96457.00
2023-01-17T06:54:45.926Z,96450.00
2023-01-17T06:56:19.122Z,96457.00
2023-01-17T06:57:52.475Z,96459.00
2023-01-17T06:59:25.705Z,96461.00
2023-01-17T07:00:59.169Z,96467.00
2023-01-17T07:02:32.517Z,96453.00
2023-01-17T07:04:05.960Z,96470.00
2023-01-17T07:05:41.654Z,96465.00
2023-01-17T07:07:16.345Z,96469.00
2023-01-17T07:08:49.859Z,96480.00
2023-01-17T07:10:24.335Z,96477.00
2023-01-17T07:12:01.778Z,96476.00
2023-01-17T07:13:36.521Z,96473.00
2023-01-17T07:15:11.810Z,96475.00
2023-01-17T07:16:46.280Z,96476.00
2023-01-17T07:18:23.156Z,96472.00
2023-01-17T07:19:56.513Z,96470.00
2023-01-17T07:21:29.898Z,96471.00
2023-01-17T07:23:05.922Z,96473.00
2023-01-17T07:24:39.204Z,96476.00
2023-01-17T07:26:12.503Z,96475.00
2023-01-17T07:27:46.340Z,96463.00
2023-01-17T07:29:22.728Z,96476.00
2023-01-17T07:30:57.261Z,96478.00
2023-01-17T07:32:32.468Z,96470.00
2023-01-17T07:34:05.635Z,96484.00
2023-01-17T07:35:38.881Z,96477.00
2023-01-17T07:37:14.325Z,96492.00
2023-01-17T07:38:49.649Z,96478.00
2023-01-17T07:40:25.434Z,96488.00
2023-01-17T07:41:58.806Z,96479.00
2023-01-17T07:43:32.022Z,96483.00
2023-01-17T07:45:09.866Z,96489.00
2023-01-17T07:46:43.269Z,96486.00
2023-01-17T07:48:17.299Z,96483.00
2023-01-17T07:49:50.398Z,96484.00
2023-01-17T07:51:24.814Z,96477.00
2023-01-17T07:52:58.245Z,96479.00
2023-01-17T07:54:32.842Z,96473.00
2023-01-17T07:56:08.695Z,96467.00
2023-01-17T07:57:41.855Z,96471.00
2023-01-17T07:59:15.119Z,96469.00
2023-01-17T08:00:49.042Z,96463.00
2023-01-17T08:02:24.924Z,96466.00
2023-01-17T08:03:58.239Z,96463.00
2023-01-17T08:05:32.031Z,96462.00
2023-01-17T08:07:05.315Z,96467.00
2023-01-17T08:08:38.807Z,96459.00
2023-01-17T08:10:17.943Z,96465.00
2023-01-17T08:11:51.274Z,96473.00
2023-01-17T08:13:24.992Z,96463.00
2023-01-17T08:14:58.139Z,96464.00
2023-01-17T08:16:31.405Z,96461.00
2023-01-17T08:18:04.809Z,96463.00
2023-01-17T08:19:38.047Z,96465.00
2023-01-17T08:21:16.779Z,96472.00
2023-01-17T08:22:52.961Z,96465.00
2023-01-17T08:24:26.266Z,96474.00
2023-01-17T08:26:03.182Z,96486.00
2023-01-17T08:27:36.575Z,96483.00
2023-01-17T08:29:10.912Z,96470.00
2023-01-17T08:30:44.728Z,96480.00
2023-01-17T08:32:17.936Z,96489.00
2023-01-17T08:33:51.167Z,96477.00
2023-01-17T08:35:28.897Z,96474.00
2023-01-17T08:37:02.229Z,96489.00
2023-01-17T08:38:35.526Z,96494.00
2023-01-17T08:40:11.025Z,96489.00
2023-01-17T08:41:45.973Z,96487.00
2023-01-17T08:43:19.783Z,96489.00
2023-01-17T08:44:53.032Z,96490.00
2023-01-17T08:46:26.822Z,96480.00
2023-01-17T08:48:00.482Z,96490.00
2023-01-17T08:49:34.249Z,96485.00
2023-01-17T08:51:08.208Z,96492.00
2023-01-17T08:52:41.454Z,96483.00
2023-01-17T08:54:15.549Z,96492.00
2023-01-17T08:55:49.244Z,96489.00
2023-01-17T08:57:24.941Z,96494.00
2023-01-17T08:58:58.882Z,96495.00
2023-01-17T09:00:32.738Z,96500.00
2023-01-17T09:02:14.728Z,96496.00
2023-01-17T09:03:51.164Z,96501.00
2023-01-17T09:05:24.900Z,96500.00
2023-01-17T09:06:58.194Z,96504.00
2023-01-17T09:08:31.643Z,96503.00
2023-01-17T09:10:05.807Z,96494.00
2023-01-17T09:11:39.860Z,96507.00
2023-01-17T09:13:14.515Z,96499.00
2023-01-17T09:14:47.888Z,96499.00
2023-01-17T09:16:21.022Z,96486.00
2023-01-17T09:17:57.214Z,96491.00
2023-01-17T09:19:30.532Z,96496.00
2023-01-17T09:21:12.809Z,96489.00
2023-01-17T09:22:46.227Z,96488.00
2023-01-17T09:24:19.501Z,96479.00
2023-01-17T09:25:56.888Z,96489.00
2023-01-17T09:27:30.305Z,96480.00
2023-01-17T09:29:05.335Z,96491.00
2023-01-17T09:30:38.762Z,96477.00
2023-01-17T09:32:11.914Z,96496.00
2023-01-17T09:33:45.211Z,96488.00
2023-01-17T09:35:19.328Z,96494.00
2023-01-17T09:36:52.608Z,96493.00
2023-01-17T09:38:25.855Z,96491.00
2023-01-17T09:39:58.999Z,96503.00
2023-01-17T09:41:37.789Z,96502.00
2023-01-17T09:43:23.911Z,96508.00
2023-01-17T09:44:59.114Z,96513.00
2023-01-17T09:46:39.889Z,96512.00
2023-01-17T09:48:18.957Z,96521.00
2023-01-17T09:49:57.483Z,96517.00
2023-01-17T09:51:30.636Z,96530.00
2023-01-17T09:53:06.921Z,96527.00
2023-01-17T09:54:43.348Z,96521.00
2023-01-17T09:56:22.286Z,96519.00
2023-01-17T09:58:02.102Z,96529.00
2023-01-17T10:00:02.873Z,96529.00
2023-01-17T10:02:05.557Z,96517.00
2023-01-17T10:03:52.797Z,96514.00
2023-01-17T10:06:00.682Z,96535.00
2023-01-17T10:07:46.754Z,96530.00
2023-01-17T10:09:38.149Z,96523.00
2023-01-17T10:11:37.334Z,96523.00
2023-01-17T10:13:29.945Z,96517.00
2023-01-17T10:15:34.405Z,96527.00
2023-01-17T10:17:18.951Z,96521.00
2023-01-17T10:19:24.449Z,96518.00
2023-01-17T10:21:06.477Z,96517.00
2023-01-17T10:22:59.086Z,96515.00
2023-01-17T10:25:10.449Z,96524.00
2023-01-17T10:26:49.064Z,96519.00
2023-01-17T10:28:31.736Z,96511.00
2023-01-17T10:30:24.439Z,96524.00
2023-01-17T10:32:01.966Z,96512.00
2023-01-17T10:33:45.563Z,96510.00
2023-01-17T10:35:24.966Z,96507.00
2023-01-17T10:37:12.412Z,96509.00
2023-01-17T10:38:49.684Z,96515.00
2023-01-17T10:40:36.006Z,96514.00
2023-01-17T10:42:20.924Z,96524.00
2023-01-17T10:44:20.606Z,96514.00
2023-01-17T10:45:57.155Z,96517.00
2023-01-17T10:47:37.302Z,96523.00
2023-01-17T10:49:19.594Z,96514.00
2023-01-17T10:51:03.660Z,96512.00
2023-01-17T10:52:48.420Z,96516.00
2023-01-17T10:54:41.442Z,96510.00
2023-01-17T10:56:18.380Z,96511.00
2023-01-17T10:57:54.345Z,96514.00
2023-01-17T10:59:33.469Z,96517.00
2023-01-17T11:01:18.567Z,96517.00
2023-01-17T11:02:52.745Z,96519.00
2023-01-17T11:04:38.945Z,96515.00
2023-01-17T11:06:24.458Z,96504.00
2023-01-17T11:08:03.147Z,96517.00
2023-01-17T11:09:42.031Z,96519.00
2023-01-17T11:11:15.511Z,96512.00
2023-01-17T11:12:48.827Z,96515.00
2023-01-17T11:14:26.900Z,96514.00
2023-01-17T11:16:04.053Z,96512.00
2023-01-17T11:17:42.372Z,96514.00
2023-01-17T11:19:25.945Z,96522.00
2023-01-17T11:21:16.354Z,96529.00
2023-01-17T11:23:06.792Z,96530.00
2023-01-17T11:24:48.031Z,96516.00
2023-01-17T11:26:27.975Z,96512.00
2023-01-17T11:28:05.733Z,96522.00
2023-01-17T11:29:40.821Z,96519.00
2023-01-17T11:31:27.961Z,96521.00
2023-01-17T11:33:06.063Z,96525.00
2023-01-17T11:34:39.408Z,96513.00
2023-01-17T11:36:27.219Z,96522.00
2023-01-17T11:38:07.558Z,96516.00
2023-01-17T11:39:42.038Z,96515.00
2023-01-17T11:41:22.211Z,96517.00
2023-01-17T11:43:19.550Z,96520.00
2023-01-17T11:44:53.381Z,96513.00
2023-01-17T11:46:29.471Z,96516.00
2023-01-17T11:48:18.372Z,96514.00
2023-01-17T11:49:51.527Z,96513.00
2023-01-17T11:51:31.555Z,96512.00
2023-01-17T11:53:19.482Z,96507.00
2023-01-17T11:54:56.104Z,96510.00
2023-01-17T11:56:34.130Z,96501.00
2023-01-17T11:58:07.354Z,96509.00
2023-01-17T11:59:44.689Z,96498.00
2023-01-17T12:01:33.832Z,96502.00
2023-01-17T12:03:26.032Z,96496.00
2023-01-17T12:05:15.557Z,96490.00
2023-01-17T12:07:09.457Z,96503.00
2023-01-17T12:09:04.195Z,96509.00
2023-01-17T12:10:54.095Z,96495.00
2023-01-17T12:13:02.545Z,96494.00
2023-01-17T12:14:54.765Z,96502.00
2023-01-17T12:16:59.191Z,96492.00
2023-01-17T12:18:46.760Z,96502.00
2023-01-17T12:20:34.093Z,96495.00
2023-01-17T12:22:29.575Z,96491.00
2023-01-17T12:24:38.091Z,96479.00
2023-01-17T12:26:28.102Z,96494.00
2023-01-17T12:28:37.109Z,96500.00
2023-01-17T12:30:55.622Z,96501.00
2023-01-17T12:32:54.923Z,96498.00
2023-01-17T12:34:35.399Z,96484.00
2023-01-17T12:36:19.991Z,96491.00
2023-01-17T12:38:05.491Z,96492.00
2023-01-17T12:39:45.723Z,96494.00
2023-01-17T12:41:26.497Z,96492.00
2023-01-17T12:43:08.818Z,96488.00
2023-01-17T12:44:54.933Z,96490.00
2023-01-17T12:46:34.476Z,96483.00
2023-01-17T12:48:13.780Z,96486.00
2023-01-17T12:49:54.350Z,96486.00
2023-01-17T12:51:33.508Z,96491.00
2023-01-17T12:53:23.122Z,96480.00
2023-01-17T12:55:02.868Z,96486.00
2023-01-17T12:56:42.497Z,96490.00
2023-01-17T12:58:26.839Z,96489.00
2023-01-17T13:00:07.681Z,96484.00
2023-01-17T13:01:43.051Z,96477.00
2023-01-17T13:03:28.288Z,96476.00
2023-01-17T13:05:11.564Z,96480.00
2023-01-17T13:07:01.856Z,96485.00
2023-01-17T13:08:42.254Z,96480.00
2023-01-17T13:10:30.973Z,96483.00
2023-01-17T13:12:12.035Z,96480.00
2023-01-17T13:13:47.400Z,96474.00
2023-01-17T13:15:26.489Z,96478.00
2023-01-17T13:17:05.518Z,96471.00
2023-01-17T13:18:45.146Z,96480.00
2023-01-17T13:20:31.672Z,96471.00
2023-01-17T13:22:07.868Z,96471.00
2023-01-17T13:24:05.824Z,96469.00
2023-01-17T13:25:49.291Z,96468.00
2023-01-17T13:27:39.349Z,96467.00
2023-01-17T13:29:30.989Z,96455.00
2023-01-17T13:31:24.177Z,96467.00
2023-01-17T13:33:29.499Z,96467.00
2023-01-17T13:35:23.007Z,96467.00
2023-01-17T13:37:31.705Z,96458.00
2023-01-17T13:39:39.814Z,96464.00
2023-01-17T13:41:44.208Z,96465.00
2023-01-17T13:43:24.013Z,96464.00
2023-01-17T13:44:58.050Z,96461.00
2023-01-17T13:46:31.853Z,96470.00
2023-01-17T13:48:32.987Z,96467.00
2023-01-17T13:50:27.050Z,96469.00
2023-01-17T13:52:10.886Z,96464.00
2023-01-17T13:53:48.670Z,96462.00
2023-01-17T13:55:47.847Z,96463.00
2023-01-17T13:57:42.076Z,96463.00
2023-01-17T13:59:31.487Z,96458.00
2023-01-17T14:01:04.913Z,96463.00
2023-01-17T14:02:40.032Z,96469.00
2023-01-17T14:04:14.710Z,96465.00
2023-01-17T14:05:49.149Z,96462.00
2023-01-17T14:07:27.547Z,96463.00
2023-01-17T14:09:05.938Z,96467.00
2023-01-17T14:10:42.268Z,96480.00
2023-01-17T14:12:33.710Z,96472.00
2023-01-17T14:14:51.867Z,96476.00
2023-01-17T14:16:29.534Z,96477.00
2023-01-17T14:18:04.940Z,96477.00
2023-01-17T14:19:39.114Z,96492.00
2023-01-17T14:21:22.300Z,96492.00
2023-01-17T14:22:59.802Z,96490.00
2023-01-17T14:24:33.393Z,96499.00
2023-01-17T14:26:34.061Z,96486.00
2023-01-17T14:28:24.785Z,96493.00
2023-01-17T14:30:00.521Z,96485.00
2023-01-17T14:31:34.363Z,96479.00
2023-01-17T14:33:16.453Z,96486.00
2023-01-17T14:34:52.588Z,96497.00
2023-01-17T14:36:34.485Z,96500.00
2023-01-17T14:38:21.404Z,96502.00
2023-01-17T14:39:54.721Z,96492.00
2023-01-17T14:41:30.237Z,96496.00
2023-01-17T14:43:11.336Z,96507.00
2023-01-17T14:44:50.068Z,96504.00
2023-01-17T14:46:28.626Z,96491.00
2023-01-17T14:48:05.306Z,96496.00
2023-01-17T14:49:38.496Z,96497.00
2023-01-17T14:51:15.063Z,96488.00
2023-01-17T14:52:48.817Z,96494.00
2023-01-17T14:54:23.814Z,96487.00
2023-01-17T14:56:01.585Z,96492.00
2023-01-17T14:57:34.917Z,96493.00
2023-01-17T14:59:17.401Z,96487.00
2023-01-17T15:00:54.514Z,96485.00
2023-01-17T15:02:27.938Z,96486.00
2023-01-17T15:04:01.208Z,96489.00
2023-01-17T15:05:35.018Z,96499.00
2023-01-17T15:07:15.669Z,96495.00
2023-01-17T15:08:51.736Z,96499.00
2023-01-17T15:10:31.686Z,96488.00
2023-01-17T15:12:09.366Z,96496.00
2023-01-17T15:13:47.292Z,96494.00
2023-01-17T15:15:38.223Z,96503.00
2023-01-17T15:17:18.037Z,96497.00
2023-01-17T15:18:52.512Z,96500.00
2023-01-17T15:20:26.021Z,96487.00
2023-01-17T15:21:59.666Z,96494.00
2023-01-17T15:23:38.305Z,96491.00
2023-01-17T15:25:15.469Z,96501.00
2023-01-17T15:26:51.310Z,96496.00
2023-01-17T15:28:25.729Z,96505.00
2023-01-17T15:30:02.216Z,96508.00
2023-01-17T15:31:42.873Z,96501.00
2023-01-17T15:33:20.900Z,96509.00
2023-01-17T15:34:54.335Z,96510.00
2023-01-17T15:36:33.065Z,96503.00
2023-01-17T15:38:06.614Z,96509.00
2023-01-17T15:39:42.019Z,96512.00
2023-01-17T15:41:18.817Z,96507.00
2023-01-17T15:42:57.886Z,96513.00
2023-01-17T15:44:47.618Z,96508.00
2023-01-17T15:46:41.604Z,96511.00
2023-01-17T15:48:41.804Z,96516.00
2023-01-17T15:50:30.977Z,96512.00
2023-01-17T15:52:17.209Z,96517.00
2023-01-17T15:53:51.839Z,96515.00
2023-01-17T15:55:30.641Z,96513.00
2023-01-17T15:57:29.001Z,96516.00
2023-01-17T15:59:43.692Z,96521.00
2023-01-17T16:01:29.770Z,96512.00
2023-01-17T16:03:15.237Z,96520.00
2023-01-17T16:04:47.666Z,96519.00
2023-01-17T16:06:36.650Z,96525.00
2023-01-17T16:08:39.665Z,96517.00
2023-01-17T16:10:18.656Z,96513.00
2023-01-17T16:11:52.016Z,96517.00
2023-01-17T16:13:25.755Z,96522.00
2023-01-17T16:15:11.990Z,96521.00
2023-01-17T16:16:54.175Z,96537.00
2023-01-17T16:18:27.856Z,96535.00
2023-01-17T16:20:01.597Z,96520.00
2023-01-17T16:21:34.981Z,96528.00
2023-01-17T16:23:10.693Z,96528.00
2023-01-17T16:24:43.836Z,96530.00
2023-01-17T16:26:18.267Z,96525.00
2023-01-17T16:27:53.385Z,96517.00
2023-01-17T16:29:27.090Z,96532.00
2023-01-17T16:31:01.974Z,96536.00
2023-01-17T16:32:35.275Z,96526.00
2023-01-17T16:34:13.049Z,96529.00
2023-01-17T16:35:46.347Z,96533.00
2023-01-17T16:37:21.959Z,96539.00
2023-01-17T16:38:55.510Z,96543.00
2023-01-17T16:40:32.717Z,96534.00
2023-01-17T16:42:06.714Z,96531.00
2023-01-17T16:43:40.683Z,96534.00
2023-01-17T16:45:15.295Z,96533.00
2023-01-17T16:46:49.890Z,96536.00
2023-01-17T16:48:23.441Z,96549.00
2023-01-17T16:49:56.638Z,96546.00
2023-01-17T16:51:30.125Z,96547.00
2023-01-17T16:53:03.575Z,96549.00
2023-01-17T16:54:37.511Z,96549.00
2023-01-17T16:56:14.397Z,96557.00
2023-01-17T16:57:47.700Z,96548.00
2023-01-17T16:59:21.389Z,96558.00
2023-01-17T17:00:59.191Z,96563.00
2023-01-17T17:02:34.836Z,96562.00
2023-01-17T17:04:08.215Z,96562.00
2023-01-17T17:05:41.435Z,96571.00
2023-01-17T17:07:14.703Z,96571.00
2023-01-17T17:08:48.726Z,96564.00
2023-01-17T17:10:25.397Z,96567.00
2023-01-17T17:11:58.650Z,96576.00
2023-01-17T17:13:35.446Z,96577.00
2023-01-17T17:15:10.702Z,96575.00
2023-01-17T17:16:44.359Z,96573.00
2023-01-17T17:18:19.734Z,96566.00
2023-01-17T17:19:52.948Z,96571.00
2023-01-17T17:21:27.494Z,96565.00
2023-01-17T17:23:00.594Z,96565.00
2023-01-17T17:24:34.619Z,96565.00
2023-01-17T17:26:07.925Z,96572.00
2023-01-17T17:27:41.138Z,96566.00
2023-01-17T17:29:15.954Z,96579.00
2023-01-17T17:30:49.451Z,96575.00
2023-01-17T17:32:23.484Z,96573.00
2023-01-17T17:34:02.363Z,96575.00
2023-01-17T17:35:36.108Z,96581.00
2023-01-17T17:37:10.276Z,96583.00
2023-01-17T17:38:51.536Z,96588.00
2023-01-17T17:40:24.697Z,96583.00
2023-01-17T17:41:58.490Z,96582.00
2023-01-17T17:43:31.637Z,96595.00
2023-01-17T17:45:05.974Z,96583.00
2023-01-17T17:46:40.076Z,96585.00
2023-01-17T17:48:13.492Z,96595.00
2023-01-17T17:49:48.200Z,96600.00
2023-01-17T17:51:27.250Z,96604.00
2023-01-17T17:53:00.399Z,96605.00
2023-01-17T17:54:34.077Z,96609.00
2023-01-17T17:56:07.968Z,96603.00
2023-01-17T17:57:41.580Z,96609.00
2023-01-17T17:59:18.288Z,96612.00
2023-01-17T18:00:51.859Z,96603.00
2023-01-17T18:02:25.756Z,96605.00
2023-01-17T18:04:03.424Z,96602.00
2023-01-17T18:05:38.983Z,96599.00
2023-01-17T18:07:12.225Z,96609.00
2023-01-17T18:08:46.258Z,96606.00
2023-01-17T18:10:20.543Z,96609.00
2023-01-17T18:11:54.937Z,96610.00
2023-01-17T18:13:28.808Z,96610.00
2023-01-17T18:15:01.958Z,96609.00
2023-01-17T18:16:41.361Z,96615.00
2023-01-17T18:18:14.618Z,96613.00
2023-01-17T18:19:48.198Z,96618.00
2023-01-17T18:21:26.266Z,96621.00
2023-01-17T18:22:59.715Z,96620.00
2023-01-17T18:24:33.879Z,96617.00
2023-01-17T18:26:08.113Z,96621.00
2023-01-17T18:27:45.132Z,96622.00
2023-01-17T18:29:20.810Z,96618.00
2023-01-17T18:30:54.645Z,96625.00
2023-01-17T18:32:27.907Z,96621.00
2023-01-17T18:34:05.865Z,96619.00
2023-01-17T18:35:39.000Z,96626.00
2023-01-17T18:37:13.588Z,96632.00
2023-01-17T18:38:52.190Z,96633.00
2023-01-17T18:40:25.860Z,96628.00
2023-01-17T18:41:59.614Z,96635.00
2023-01-17T18:43:32.775Z,96640.00
2023-01-17T18:45:07.951Z,96640.00
2023-01-17T18:46:42.016Z,96631.00
2023-01-17T18:48:15.236Z,96637.00
2023-01-17T18:49:54.550Z,96626.00
2023-01-17T18:51:32.443Z,96633.00
2023-01-17T18:53:09.868Z,96633.00
2023-01-17T18:54:43.411Z,96637.00
2023-01-17T18:56:20.063Z,96637.00
2023-01-17T18:57:53.537Z,96646.00
2023-01-17T18:59:27.439Z,96635.00
2023-01-17T19:01:10.769Z,96639.00
2023-01-17T19:02:44.070Z,96638.00
2023-01-17T19:04:18.735Z,96642.00
2023-01-17T19:05:51.972Z,96641.00
2023-01-17T19:07:30.510Z,96638.00
2023-01-17T19:09:07.532Z,96645.00
2023-01-17T19:10:41.217Z,96642.00
2023-01-17T19:12:14.539Z,96645.00
2023-01-17T19:13:48.697Z,96634.00
2023-01-17T19:15:21.853Z,96642.00
2023-01-17T19:16:56.065Z,96647.00
2023-01-17T19:18:29.521Z,96651.00
2023-01-17T19:20:02.765Z,96657.00
2023-01-17T19:21:36.957Z,96656.00
2023-01-17T19:23:10.611Z,96652.00